Главная страница
METAR-TAF:

METAR-TAF

Аэропорты :

Лулео, Швеция

широта: 65-33N, долгота: 022-08E, высота над уровнем моря: 17 м

Текущие метеонаблюдения

Эта сводка был подготовлена 32 минут назад, в 15:50 UTC
Ветер 6 Узел от юго-западный
Температура 18°C
Влажность 49%
Давление 1012 hPa
Видимость 10 км и более
Нет облачности ниже 1500 м, и нет кучево-дождевой облачности

METAR: ESPA 221550Z 22006KT CAVOK 18/07 Q1012

Время: 18:22 (16:22 UTC)

Прогноз

Эта сводка был подготовлена 1 час и 52 минут назад, в 14:30 UTC
Прогноз действительный с 22-го 15 UTC до 22-го 19 UTC
Ветер 8 Узел от южный
Видимость 10 км и более
Нет облачности ниже 1500 м, и нет кучево-дождевой облачности

TAF: ESPA 221430Z 2215/2219 18008KT CAVOK

Метеонаблюдения и прогнозы для более 4000 аэропортов (сводки METAR и TAF).

Имеющиеся станции представлены на карте желтыми и красными точками.

Чтобы увидеть название станции, наведите на нее мышь.

Затем щелкните, чтобы увидеть метеонаблюдения и метеопрогнозы.

Управление картой: чтобы увеличить масштаб, щелкните зеленые кнопки с черным крестиком; чтобы уменьшить масштаб, щелкните зеленую кнопку с тире; для просмотра соседних карт щелкайте зеленые стрелки.


METAR-TAF: